MLBA4: Mulberry River at Mulberry, AR

                                SHEF ID:       MLBA4     Mulberry River near Mulberry. AR
STATION TYPE: Stream Gauge

PRECIP STAGE RIV-FLOW BAT-LOAD
in ft cfs volt
Ccp-Rev Ccp-Rev Ccp-Rev Ccp-Rev
(America/Chicago)
06/23 00:00 0.00 6.14 4173 13.41
06/23 01:00 0.00 5.91 3876 13.41
06/23 02:00 0.00 5.73 3652 13.41
06/23 03:00 0.00 5.55 3433 13.42
06/23 04:00 0.00 5.43 3292 13.42
06/23 05:00 0.00 5.31 3153 13.42
06/23 06:00 0.00 5.27 3107 13.44
06/23 07:00 0.00 5.16 2983 ----
06/23 08:00 0.00 5.10 2917 13.45
06/23 09:00 0.00 5.00 2808 13.45
06/23 10:00 0.00 4.89 2690 13.43
06/23 11:00 0.00 4.82 2614 13.43
06/23 12:00 0.00 4.75 2539 13.44
06/23 13:00 0.00 4.68 2465 13.44
06/23 14:00 0.00 4.63 2412 13.42
06/23 15:00 0.00 4.58 2361 13.42
06/23 16:00 0.00 4.50 2279 13.42
06/23 17:00 0.00 4.48 2259 13.42
06/23 18:00 0.00 4.41 2190 13.42
06/23 19:00 0.00 4.35 2131 13.42
06/23 20:00 0.00 4.28 2063 13.42
06/23 21:00 0.00 4.24 2025 13.43
06/23 22:00 0.00 4.18 1968 13.42
06/23 23:00 0.00 4.14 1931 13.43
Data processed at Wed 24Jun2026 04:40 GMT

NOTICE: If you are parsing this page

Please convert to using our Data API. Starting early 2026 we will be migrating to: https://water.usace.army.mil with modern pages rendered in JavaScript. When this migration completes you will no longer be able to scrape this page! CWMSDataAPI (CDA)

Timeseries IDs (TSIDs)

TSIDs used from left to right in the data table
MULB.Precip-Inc.Total.1Hour.1Hour.Ccp-Rev
MULB.Stage.Inst.1Hour.0.Ccp-Rev
MULB.Flow.Inst.1Hour.0.Ccp-Rev
MULB.Volt-Battery Load.Inst.1Hour.0.Ccp-Rev

                            

All information presented herein is the property of the government of the United States of America and may be revised or deleted at any time without prior notice. Dissemination of this information without the expressed written consent of the Public Affairs Office, Tulsa District U.S. Army Corps of Engineers is strictly prohibited. These data are gathered electronically and, as presented, have NOT undergone any form of quality control. These data are NOT guaranteed to be valid or correct.